Time;durP1;ratioP1;P1;durP2;ratioP2;P2;SDS_P1;SDS_P2;PMS_P1;PMS_P2;Temp;Humidity;BMP_temperature;BMP_pressure;BME280_temperature;BME280_humidity;BME280_pressure;Samples;Min_cycle;Max_cycle;Signal;HPM_P1;HPM_P2
2021/11/10 00:02:09;;;;;;;;;0.75;0.75;;;;;7.51;66.40;102164.53;5085958;28;45472;-79
2021/11/10 00:04:35;;;;;;;;;3.00;1.75;;;;;7.33;66.77;102129.22;5085244;28;46247;-78
2021/11/10 00:07:01;;;;;;;;;1.50;1.50;;;;;7.49;67.31;102148.00;5067182;28;46020;-79
2021/11/10 00:09:27;;;;;;;;;4.00;1.00;;;;;7.50;67.08;102157.53;5085687;28;45457;-79
2021/11/10 00:11:54;;;;;;;;;1.00;1.00;;;;;7.30;66.76;102123.88;5085814;28;45287;-79
2021/11/10 00:14:19;;;;;;;;;2.75;2.75;;;;;7.37;67.00;102142.28;5085544;28;45331;-79
2021/11/10 00:16:45;;;;;;;;;1.25;1.25;;;;;7.40;66.71;102132.03;5085392;28;45304;-79
2021/11/10 00:19:10;;;;;;;;;1.00;1.00;;;;;7.44;66.55;102132.25;5085557;28;45278;-79
2021/11/10 00:21:36;;;;;;;;;3.50;1.75;;;;;7.32;66.93;102124.81;5086075;28;45589;-79
2021/11/10 00:24:02;;;;;;;;;4.25;4.00;;;;;7.28;66.44;102120.31;5084060;28;48166;-80
2021/11/10 00:26:27;;;;;;;;;2.00;2.00;;;;;7.35;66.88;102130.13;5085334;28;45278;-79
2021/11/10 00:28:53;;;;;;;;;2.00;0.00;;;;;7.34;66.81;102130.97;5084091;28;45349;-79
2021/11/10 00:31:20;;;;;;;;;1.75;1.75;;;;;7.32;67.13;102130.00;5085555;28;45241;-79
2021/11/10 00:33:46;;;;;;;;;2.00;2.00;;;;;7.15;67.08;102086.91;5084819;28;45424;-79
2021/11/10 00:36:13;;;;;;;;;1.50;1.50;;;;;7.23;67.11;102101.97;5083751;28;45967;-79
2021/11/10 00:38:39;;;;;;;;;2.75;2.25;;;;;7.14;67.34;102090.34;5085160;28;45305;-79
2021/11/10 00:41:05;;;;;;;;;5.25;2.00;;;;;7.07;67.10;102099.53;5084711;28;45361;-79
2021/11/10 00:43:31;;;;;;;;;3.75;3.00;;;;;7.09;67.00;102122.09;5066799;28;46901;-79
2021/11/10 00:45:57;;;;;;;;;5.50;2.50;;;;;7.16;67.03;102132.72;5085051;28;45193;-78
2021/11/10 00:48:22;;;;;;;;;3.25;1.25;;;;;7.11;67.23;102122.19;5084884;28;45799;-79
2021/11/10 00:50:48;;;;;;;;;1.25;1.25;;;;;7.03;67.57;102120.91;5085352;28;45433;-78
2021/11/10 00:53:14;;;;;;;;;2.00;2.00;;;;;6.97;67.53;102111.16;5084768;28;45308;-79
2021/11/10 00:55:41;;;;;;;;;1.25;1.25;;;;;6.95;67.13;102108.50;5085049;28;45366;-79
2021/11/10 00:58:07;;;;;;;;;2.50;1.00;;;;;6.95;67.38;102112.78;5085006;28;45263;-79
2021/11/10 01:00:33;;;;;;;;;2.00;2.00;;;;;6.95;67.33;102111.09;5083683;28;45466;-78
2021/11/10 01:02:58;;;;;;;;;4.00;1.50;;;;;6.94;67.72;102106.75;5084361;28;46150;-78
2021/11/10 01:05:24;;;;;;;;;2.75;2.50;;;;;6.79;67.43;102072.38;5066185;28;45302;-79
2021/11/10 01:07:49;;;;;;;;;3.50;2.00;;;;;6.82;67.83;102085.47;5084918;28;45188;-79
2021/11/10 01:10:15;;;;;;;;;2.75;2.75;;;;;6.89;67.37;102094.41;5085024;28;45208;-79
2021/11/10 01:12:40;;;;;;;;;3.00;2.00;;;;;6.82;67.57;102072.53;5084577;28;45920;-79
2021/11/10 01:15:09;;;;;;;;;1.75;1.75;;;;;6.80;67.65;102075.03;5084755;28;45329;-79
2021/11/10 01:17:36;;;;;;;;;2.25;2.25;;;;;6.63;67.96;102057.84;5084500;28;45437;-78
2021/11/10 01:20:03;;;;;;;;;3.25;3.25;;;;;6.47;67.49;102039.91;5066403;28;45361;-78
2021/11/10 01:22:29;;;;;;;;;6.25;4.75;;;;;6.58;68.17;102066.28;5084253;28;45505;-78
2021/11/10 01:24:54;;;;;;;;;2.25;2.25;;;;;6.55;68.34;102062.66;5084087;28;45251;-78
2021/11/10 01:27:20;;;;;;;;;5.00;5.00;;;;;6.58;68.63;102073.16;5084480;28;45612;-79
2021/11/10 01:29:45;;;;;;;;;3.00;2.50;;;;;6.52;68.83;102062.56;5066454;28;45570;-78
2021/11/10 01:32:11;;;;;;;;;6.50;4.00;;;;;6.43;68.13;102060.41;5083662;28;46931;-79
2021/11/10 01:34:36;;;;;;;;;5.75;3.75;;;;;6.59;68.85;102082.72;5066025;28;45929;-78
2021/11/10 01:37:02;;;;;;;;;3.00;3.00;;;;;6.59;68.83;102075.81;5084304;28;45181;-78
2021/11/10 01:39:27;;;;;;;;;5.25;3.25;;;;;6.51;68.54;102051.31;5084606;28;45242;-78
2021/11/10 01:41:55;;;;;;;;;2.25;2.25;;;;;6.58;68.38;102057.63;5084103;28;45335;-78
2021/11/10 01:44:24;;;;;;;;;2.25;2.00;;;;;6.63;68.81;102066.50;5084289;28;45392;-79
2021/11/10 01:46:51;;;;;;;;;1.50;1.50;;;;;6.65;68.74;102069.16;5084064;28;45202;-78
2021/11/10 01:49:17;;;;;;;;;1.75;1.75;;;;;6.44;68.50;102044.06;5084115;28;45604;-79
2021/11/10 01:51:51;;;;;;;;;5.00;3.00;;;;;6.59;68.35;102060.28;5082786;28;45331;-78
2021/11/10 01:54:18;;;;;;;;;5.00;1.50;;;;;6.65;68.16;102069.16;5084024;28;45287;-79
2021/11/10 01:56:44;;;;;;;;;3.25;2.75;;;;;6.39;68.26;102030.91;5084010;28;45376;-78
2021/11/10 01:59:26;;;;;;;;;4.00;3.25;;;;;6.65;68.00;102071.75;5084211;28;45517;-79
2021/11/10 02:01:52;;;;;;;;;3.50;3.50;;;;;6.31;68.21;102015.03;5083652;28;46542;-79
2021/11/10 02:04:17;;;;;;;;;2.00;2.00;;;;;6.63;68.34;102068.19;5081963;28;45319;-78
2021/11/10 02:06:42;;;;;;;;;2.50;2.50;;;;;6.67;68.03;102077.88;5084021;28;45278;-79
2021/11/10 02:09:08;;;;;;;;;1.00;1.00;;;;;6.72;68.01;102081.56;5084268;28;45206;-78
2021/11/10 02:11:34;;;;;;;;;2.25;1.00;;;;;6.67;68.31;102075.28;5083427;28;45264;-79
2021/11/10 02:14:00;;;;;;;;;2.00;2.00;;;;;6.70;68.00;102078.91;5083688;28;45412;-79
2021/11/10 02:16:27;;;;;;;;;12.25;3.75;;;;;6.75;67.88;102093.75;5083497;28;45309;-79
2021/11/10 02:18:54;;;;;;;;;2.50;1.50;;;;;6.56;67.90;102061.88;5083802;28;45473;-78
2021/11/10 02:21:20;;;;;;;;;3.00;3.00;;;;;6.45;68.15;102051.91;5083656;28;45302;-78
2021/11/10 02:23:45;;;;;;;;;2.00;1.00;;;;;6.53;67.99;102060.03;5083429;28;45243;-79
2021/11/10 02:26:16;;;;;;;;;2.75;1.00;;;;;6.47;67.86;102054.56;5083722;28;45341;-78
2021/11/10 02:28:42;;;;;;;;;2.25;2.25;;;;;6.24;67.76;102014.66;5083648;28;45436;-79
2021/11/10 02:31:09;;;;;;;;;2.25;2.25;;;;;6.42;67.77;102053.44;5083013;28;45319;-80
2021/11/10 02:33:35;;;;;;;;;5.50;2.00;;;;;6.15;67.78;102009.94;5082949;28;45220;-79
2021/11/10 02:36:03;;;;;;;;;2.00;2.00;;;;;6.36;68.12;102054.06;5083497;28;45232;-79
2021/11/10 02:38:29;;;;;;;;;6.00;3.00;;;;;6.30;68.07;102041.72;5083564;28;45228;-79
2021/11/10 02:40:57;;;;;;;;;2.00;2.00;;;;;6.29;68.19;102045.13;5083220;28;45354;-78
2021/11/10 02:43:23;;;;;;;;;3.00;2.50;;;;;6.17;68.37;102021.25;5081772;28;45329;-79
2021/11/10 02:45:49;;;;;;;;;4.00;2.00;;;;;6.29;68.63;102039.06;5083118;28;45326;-79
2021/11/10 02:48:15;;;;;;;;;3.25;3.25;;;;;6.12;67.82;102005.53;5083169;28;45239;-79
2021/11/10 02:50:41;;;;;;;;;4.25;1.75;;;;;6.21;67.89;102028.34;5082922;28;45220;-79
2021/11/10 02:53:07;;;;;;;;;2.50;2.00;;;;;5.99;68.24;102004.03;5082997;28;45219;-79
2021/11/10 02:55:32;;;;;;;;;6.50;2.75;;;;;6.13;68.50;102043.50;5082752;28;45946;-79
2021/11/10 02:57:58;;;;;;;;;2.00;2.00;;;;;6.03;68.46;102028.34;5083387;28;45184;-79
2021/11/10 03:00:26;;;;;;;;;1.25;1.25;;;;;5.87;68.65;102017.25;5082722;28;45270;-79
2021/11/10 03:02:52;;;;;;;;;6.25;4.75;;;;;5.96;68.94;102030.63;5082151;28;45576;-79
2021/11/10 03:05:18;;;;;;;;;3.50;2.75;;;;;5.91;68.87;102026.91;5082878;28;45552;-78
2021/11/10 03:07:43;;;;;;;;;1.00;1.00;;;;;5.98;68.65;102029.78;5083250;28;45247;-79
2021/11/10 03:10:09;;;;;;;;;1.25;1.25;;;;;5.94;68.93;102018.41;5064464;28;47624;-79
2021/11/10 03:12:35;;;;;;;;;3.00;3.00;;;;;5.90;68.94;102009.63;5082850;28;45246;-78
2021/11/10 03:15:01;;;;;;;;;1.25;0.00;;;;;5.95;68.68;102026.25;5082693;28;45265;-79
2021/11/10 03:17:27;;;;;;;;;3.00;1.50;;;;;5.83;68.75;102008.44;5082520;28;45265;-79
2021/11/10 03:19:52;;;;;;;;;3.00;2.00;;;;;5.61;68.63;101984.97;5082564;28;45284;-79
2021/11/10 03:22:18;;;;;;;;;3.50;2.00;;;;;5.63;68.69;102006.59;5064361;28;45258;-79
2021/11/10 03:24:44;;;;;;;;;2.00;2.00;;;;;5.64;68.97;102034.19;5082500;28;45230;-78
2021/11/10 03:27:10;;;;;;;;;2.50;2.50;;;;;5.37;68.99;101996.72;5082973;28;45500;-79
2021/11/10 03:29:36;;;;;;;;;2.25;2.25;;;;;5.49;68.94;102030.03;5082092;28;46145;-79
2021/11/10 03:32:04;;;;;;;;;0.75;0.75;;;;;5.47;68.92;102033.34;5080800;28;45363;-79
2021/11/10 03:34:30;;;;;;;;;2.00;2.00;;;;;5.37;69.55;102006.16;5082605;28;45323;-78
2021/11/10 03:36:56;;;;;;;;;3.25;2.25;;;;;5.30;69.57;101995.53;5082674;28;45339;-79
2021/11/10 03:39:21;;;;;;;;;2.75;2.75;;;;;5.43;69.25;102021.97;5082364;28;45354;-79
2021/11/10 03:41:47;;;;;;;;;1.00;1.00;;;;;5.29;69.37;102004.09;5082509;28;45262;-79
2021/11/10 03:44:12;;;;;;;;;2.00;0.75;;;;;5.50;69.91;102033.50;5081241;28;45277;-79
2021/11/10 03:46:38;;;;;;;;;1.75;1.25;;;;;5.60;69.29;102042.63;5064325;28;45641;-79
2021/11/10 03:49:04;;;;;;;;;1.00;1.00;;;;;5.66;69.08;102028.28;5081858;28;45274;-79
2021/11/10 03:51:29;;;;;;;;;4.00;2.75;;;;;5.59;69.01;102013.28;5064249;28;45883;-78
2021/11/10 03:53:56;;;;;;;;;2.00;2.00;;;;;5.75;68.97;102026.97;5082346;28;45325;-79
2021/11/10 03:56:22;;;;;;;;;1.50;1.50;;;;;5.86;68.70;102035.25;5082544;28;45476;-78
2021/11/10 03:58:47;;;;;;;;;2.75;2.75;;;;;5.78;68.68;102012.50;5082129;28;45267;-78
2021/11/10 04:01:15;;;;;;;;;5.25;3.75;;;;;5.93;68.45;102032.16;5064081;28;45251;-79
2021/11/10 04:03:41;;;;;;;;;4.75;1.75;;;;;5.92;68.33;102031.28;5080644;28;45269;-79
2021/11/10 04:06:07;;;;;;;;;2.50;2.50;;;;;5.88;68.66;102024.16;5082477;28;45469;-79
2021/11/10 04:08:33;;;;;;;;;2.25;2.00;;;;;6.01;68.28;102053.22;5081928;28;46350;-79
2021/11/10 04:11:00;;;;;;;;;3.25;1.00;;;;;6.01;68.39;102063.56;5082065;28;45355;-79
2021/11/10 04:13:27;;;;;;;;;2.00;2.00;;;;;6.03;68.27;102067.97;5082394;28;45429;-79
2021/11/10 04:15:53;;;;;;;;;3.25;1.75;;;;;6.08;68.05;102082.06;5083836;28;45450;-79
2021/11/10 04:18:18;;;;;;;;;4.00;2.25;;;;;6.13;68.17;102107.25;5083897;28;47985;-79
2021/11/10 04:20:43;;;;;;;;;6.00;3.50;;;;;5.99;68.45;102084.16;5085301;28;45395;-79
2021/11/10 04:23:09;;;;;;;;;2.25;2.25;;;;;5.95;68.55;102066.72;5066966;28;45313;-79
2021/11/10 04:25:34;;;;;;;;;2.25;2.25;;;;;5.98;68.47;102066.00;5085558;28;45313;-80
2021/11/10 04:27:59;;;;;;;;;2.00;2.00;;;;;6.12;68.60;102092.56;5084011;28;46168;-79
2021/11/10 04:30:25;;;;;;;;;7.25;2.00;;;;;6.16;68.53;102090.19;5085163;28;45219;-79
2021/11/10 04:32:50;;;;;;;;;4.25;4.25;;;;;6.13;68.63;102066.78;5066520;28;45232;-79
2021/11/10 04:35:16;;;;;;;;;2.50;2.50;;;;;6.15;68.89;102069.41;5067169;28;45422;-79
2021/11/10 04:37:43;;;;;;;;;4.50;4.50;;;;;6.21;68.71;102065.44;5066721;28;47154;-77
2021/11/10 04:40:10;;;;;;;;;2.00;2.00;;;;;6.08;68.65;102043.28;5085171;28;45314;-77
2021/11/10 04:42:38;;;;;;;;;2.00;2.00;;;;;6.33;68.71;102079.75;5085186;28;45336;-77
2021/11/10 04:45:08;;;;;;;;;3.00;2.75;;;;;6.38;68.65;102073.13;5085417;28;45307;-78
2021/11/10 04:47:34;;;;;;;;;2.00;1.50;;;;;6.31;68.44;102051.25;5066148;28;48697;-78
2021/11/10 04:50:02;;;;;;;;;2.75;1.50;;;;;6.18;68.38;102035.94;5084722;28;45268;-77
2021/11/10 04:52:27;;;;;;;;;2.50;2.25;;;;;6.34;68.81;102058.25;5084488;28;45332;-78
2021/11/10 04:54:54;;;;;;;;;2.50;2.50;;;;;6.47;68.56;102078.72;5083267;28;45473;-77
2021/11/10 04:57:20;;;;;;;;;4.00;2.00;;;;;6.47;68.60;102077.84;5084900;28;45344;-77
2021/11/10 04:59:45;;;;;;;;;1.25;1.00;;;;;6.53;68.62;102082.41;5084750;28;45199;-77
2021/11/10 05:04:38;;;;;;;;;4.50;3.25;;;;;6.50;68.28;102067.66;5084205;28;45379;-77
2021/11/10 05:07:04;;;;;;;;;3.00;3.00;;;;;6.54;68.18;102053.13;5084499;28;45269;-77
2021/11/10 05:09:30;;;;;;;;;2.25;2.25;;;;;6.44;67.83;102038.91;5065922;28;45354;-77
2021/11/10 05:11:56;;;;;;;;;3.00;2.75;;;;;6.37;67.75;102048.06;5084575;28;45327;-77
2021/11/10 05:14:22;;;;;;;;;4.50;4.50;;;;;6.19;67.58;102022.22;5084904;28;45301;-77
2021/11/10 05:16:48;;;;;;;;;7.25;5.25;;;;;6.24;67.49;102036.25;5082795;28;46989;-77
2021/11/10 05:19:13;;;;;;;;;5.75;4.75;;;;;6.11;67.15;102021.84;5084122;28;45317;-78
2021/11/10 05:21:39;;;;;;;;;2.00;2.00;;;;;6.04;67.27;102025.81;5084383;28;45553;-77
2021/11/10 05:24:04;;;;;;;;;7.00;4.00;;;;;5.96;67.21;102019.38;5083039;28;45359;-77
2021/11/10 05:26:31;;;;;;;;;2.50;2.50;;;;;5.72;67.21;102001.88;5084124;27;46616;-79
2021/11/10 05:28:56;;;;;;;;;3.50;3.25;;;;;5.67;67.62;102013.69;5083487;28;45331;-77
2021/11/10 05:31:22;;;;;;;;;2.25;2.25;;;;;5.72;67.62;102037.19;5083873;28;45220;-77
2021/11/10 05:33:48;;;;;;;;;5.50;4.75;;;;;5.45;68.02;101999.69;5084135;28;45235;-77
2021/11/10 05:36:13;;;;;;;;;4.25;3.50;;;;;5.60;67.87;102024.53;5084096;28;45735;-77
2021/11/10 05:38:38;;;;;;;;;3.75;2.00;;;;;5.52;67.76;102006.94;5083715;28;45248;-78
2021/11/10 05:41:04;;;;;;;;;8.00;6.25;;;;;5.49;67.81;102011.06;5084260;28;45234;-77
2021/11/10 05:43:30;;;;;;;;;11.50;4.00;;;;;5.16;68.06;101988.78;5083980;28;45285;-77
2021/11/10 05:45:56;;;;;;;;;6.00;4.00;;;;;5.17;68.14;102008.59;5083271;28;46346;-80
2021/11/10 05:48:21;;;;;;;;;5.00;3.75;;;;;5.11;68.35;102010.91;5083364;28;45315;-78
2021/11/10 05:50:47;;;;;;;;;3.00;3.00;;;;;5.01;68.70;102019.84;5083795;28;45314;-78
2021/11/10 05:53:13;;;;;;;;;6.50;3.00;;;;;4.84;68.86;101994.03;5083669;28;45438;-80
2021/11/10 05:55:40;;;;;;;;;4.00;4.00;;;;;4.86;69.31;101994.09;5083144;28;45323;-78
2021/11/10 05:58:06;;;;;;;;;5.00;5.00;;;;;4.83;69.20;101997.41;5083445;28;45177;-78
2021/11/10 06:00:32;;;;;;;;;3.50;3.25;;;;;4.72;69.57;101972.75;5083346;28;45220;-78
2021/11/10 06:02:57;;;;;;;;;4.00;3.50;;;;;4.78;69.64;101983.41;5083427;28;45468;-78
2021/11/10 06:05:23;;;;;;;;;2.75;2.25;;;;;4.92;69.84;102020.25;5064618;28;48222;-78
2021/11/10 06:07:49;;;;;;;;;6.25;3.00;;;;;4.89;70.23;102014.91;5083055;28;45255;-77
2021/11/10 06:10:16;;;;;;;;;3.00;3.00;;;;;5.02;69.60;102037.13;5081687;28;45336;-79
2021/11/10 06:12:42;;;;;;;;;6.75;3.25;;;;;4.94;70.39;102011.75;5083408;28;45452;-77
2021/11/10 06:15:09;;;;;;;;;1.75;1.75;;;;;5.15;70.07;102061.88;5082623;28;45256;-77
2021/11/10 06:17:34;;;;;;;;;3.25;3.00;;;;;5.16;70.26;102043.88;5082521;28;45264;-78
2021/11/10 06:20:02;;;;;;;;;3.25;2.25;;;;;5.17;69.63;102042.16;5082695;28;45228;-78
2021/11/10 06:22:27;;;;;;;;;2.00;2.00;;;;;5.31;70.06;102061.88;5083511;28;45243;-78
2021/11/10 06:24:53;;;;;;;;;3.50;3.50;;;;;5.23;69.34;102047.66;5082526;28;45252;-78
2021/11/10 06:27:18;;;;;;;;;6.00;4.00;;;;;5.38;69.21;102057.91;5082741;28;45263;-78
2021/11/10 06:29:44;;;;;;;;;1.75;1.75;;;;;5.53;69.47;102069.81;5083120;28;45200;-78
2021/11/10 06:32:09;;;;;;;;;3.00;3.00;;;;;5.44;69.35;102050.47;5082663;28;45350;-78
2021/11/10 06:34:35;;;;;;;;;2.25;2.25;;;;;5.61;69.19;102086.63;5082564;28;45807;-79
2021/11/10 06:37:01;;;;;;;;;6.75;3.25;;;;;5.52;68.91;102083.56;5082288;28;45368;-78
2021/11/10 06:39:26;;;;;;;;;1.75;1.75;;;;;5.67;68.80;102098.94;5081555;28;45407;-79
2021/11/10 06:41:52;;;;;;;;;4.00;3.00;;;;;5.69;68.63;102107.66;5064193;28;45325;-77
2021/11/10 06:44:17;;;;;;;;;4.00;3.00;;;;;5.64;68.09;102096.22;5082347;28;45308;-78
2021/11/10 06:46:43;;;;;;;;;4.00;4.00;;;;;5.60;68.45;102086.53;5082572;28;45310;-80
2021/11/10 06:49:08;;;;;;;;;2.50;2.50;;;;;5.71;68.00;102108.63;5082213;28;45317;-79
2021/11/10 06:51:34;;;;;;;;;4.25;1.50;;;;;5.63;68.20;102113.41;5082486;28;45325;-79
2021/11/10 06:53:59;;;;;;;;;2.00;2.00;;;;;5.75;68.14;102131.22;5063667;28;47361;-78
2021/11/10 06:56:24;;;;;;;;;7.75;3.00;;;;;5.75;68.19;102136.41;5081908;28;45211;-79
2021/11/10 06:58:50;;;;;;;;;3.25;2.25;;;;;5.74;68.08;102137.22;5082381;28;45162;-79
2021/11/10 07:01:16;;;;;;;;;4.50;2.50;;;;;5.66;68.26;102126.47;5082356;28;45211;-79
2021/11/10 07:03:41;;;;;;;;;3.50;2.50;;;;;5.87;67.83;102164.56;5082131;28;46026;-79
2021/11/10 07:06:07;;;;;;;;;1.25;1.25;;;;;5.78;67.61;102152.06;5082213;28;45240;-79
2021/11/10 07:08:33;;;;;;;;;6.00;4.25;;;;;5.73;67.72;102142.31;5082295;28;45145;-79
2021/11/10 07:10:58;;;;;;;;;3.25;2.50;;;;;5.85;68.03;102162.72;5082234;28;45218;-79
2021/11/10 07:13:23;;;;;;;;;2.75;2.75;;;;;5.87;68.06;102159.41;5082202;28;45231;-78
2021/11/10 07:15:49;;;;;;;;;5.75;5.00;;;;;5.78;67.99;102151.16;5081741;28;45333;-79
2021/11/10 07:18:14;;;;;;;;;3.25;3.25;;;;;5.75;68.18;102138.06;5081922;28;45661;-78
2021/11/10 07:20:40;;;;;;;;;2.50;2.50;;;;;5.77;68.18;102144.22;5081948;28;45413;-78
2021/11/10 07:23:06;;;;;;;;;6.25;5.50;;;;;5.75;68.13;102144.16;5081746;28;45449;-79
2021/11/10 07:25:32;;;;;;;;;7.75;6.25;;;;;5.76;68.15;102140.75;5082095;28;45286;-78
2021/11/10 07:27:58;;;;;;;;;6.00;5.50;;;;;5.66;68.00;102117.81;5081646;28;45266;-78
2021/11/10 07:30:23;;;;;;;;;4.50;4.50;;;;;5.54;68.35;102108.66;5084265;28;45280;-77
2021/11/10 07:32:49;;;;;;;;;4.00;4.00;;;;;5.56;68.27;102121.66;5080993;28;45431;-80
2021/11/10 07:35:15;;;;;;;;;9.75;4.00;;;;;5.61;67.93;102139.97;5082167;28;45306;-80
2021/11/10 07:37:44;;;;;;;;;6.00;4.50;;;;;5.62;68.12;102131.41;5080490;28;45279;-77
2021/11/10 07:40:10;;;;;;;;;4.50;3.25;;;;;5.61;67.86;102137.38;5064284;28;45410;-77
2021/11/10 07:42:36;;;;;;;;;10.00;4.50;;;;;5.48;68.13;102121.22;5062111;28;47298;-78
2021/11/10 07:45:15;;;;;;;;;3.25;3.25;;;;;5.29;68.36;102099.63;5062643;28;45840;-78
2021/11/10 07:47:41;;;;;;;;;3.50;3.25;;;;;5.34;67.77;102099.88;5081483;28;45420;-78
2021/11/10 07:50:12;;;;;;;;;6.50;5.25;;;;;5.50;67.66;102113.56;5082653;28;45472;-78
2021/11/10 07:52:38;;;;;;;;;6.50;5.50;;;;;5.61;67.57;102121.88;5083296;28;48465;-78
2021/11/10 07:55:04;;;;;;;;;4.00;2.75;;;;;5.60;67.86;102122.69;5085119;28;45327;-78
2021/11/10 07:57:30;;;;;;;;;6.00;5.00;;;;;5.67;67.52;102125.66;5085095;28;45290;-78
2021/11/10 07:59:55;;;;;;;;;4.50;4.50;;;;;5.60;67.84;102102.91;5084869;28;45316;-78
2021/11/10 08:02:21;;;;;;;;;4.25;4.25;;;;;5.67;67.93;102109.28;5084414;28;45278;-78
2021/11/10 08:04:47;;;;;;;;;6.75;3.50;;;;;5.61;67.82;102096.94;5084409;28;45315;-79
2021/11/10 08:07:12;;;;;;;;;2.00;2.00;;;;;5.77;67.42;102110.63;5084476;28;45219;-78
2021/11/10 08:09:38;;;;;;;;;5.25;3.00;;;;;5.69;67.87;102098.22;5066500;28;45663;-78
2021/11/10 08:12:03;;;;;;;;;4.00;3.50;;;;;5.74;67.63;102098.44;5066125;28;47007;-78
2021/11/10 08:14:29;;;;;;;;;3.50;3.25;;;;;5.95;68.00;102129.63;5084989;28;45224;-78
2021/11/10 08:16:55;;;;;;;;;3.25;3.25;;;;;6.02;67.35;102140.28;5084775;28;45324;-81
2021/11/10 08:19:20;;;;;;;;;4.25;3.75;;;;;5.86;67.30;102110.22;5084907;28;45292;-78
2021/11/10 08:21:46;;;;;;;;;2.50;2.00;;;;;5.99;67.03;102134.97;5066773;28;45337;-80
2021/11/10 08:24:11;;;;;;;;;3.00;3.00;;;;;5.92;67.55;102134.69;5084819;28;45424;-79
2021/11/10 08:26:37;;;;;;;;;2.00;2.00;;;;;6.02;67.17;102150.63;5086005;28;45680;-75
2021/11/10 08:29:02;;;;;;;;;5.25;4.00;;;;;6.15;67.56;102147.00;5086007;28;45244;-80
2021/11/10 08:31:28;;;;;;;;;2.75;2.75;;;;;6.26;67.33;102153.59;5084112;28;46259;-77
2021/11/10 08:33:53;;;;;;;;;4.50;4.50;;;;;6.39;67.56;102154.19;5083787;28;45256;-80
2021/11/10 08:36:18;;;;;;;;;6.25;6.25;;;;;6.47;66.99;102169.25;5085005;28;45389;-80
2021/11/10 08:38:44;;;;;;;;;7.00;5.50;;;;;6.33;67.23;102119.47;5085573;28;45291;-80
2021/11/10 08:41:09;;;;;;;;;3.75;3.25;;;;;6.47;66.98;102135.63;5083481;28;46132;-78
2021/11/10 08:43:34;;;;;;;;;5.50;3.50;;;;;6.43;66.59;102101.81;5083450;28;45324;-79
2021/11/10 08:46:00;;;;;;;;;7.75;5.00;;;;;6.74;66.74;102143.78;5084242;28;45208;-79
2021/11/10 08:48:27;;;;;;;;;6.75;6.00;;;;;6.95;66.47;102154.22;5084449;28;45398;-79
2021/11/10 08:50:54;;;;;;;;;6.00;6.00;;;;;7.00;66.51;102155.34;5083266;28;45294;-80
2021/11/10 08:53:22;;;;;;;;;5.50;5.50;;;;;7.03;65.82;102150.31;5082774;28;45276;-80
2021/11/10 08:55:55;;;;;;;;;6.50;4.75;;;;;6.96;65.83;102141.34;5083306;28;45309;-79
2021/11/10 08:58:22;;;;;;;;;4.00;4.00;;;;;7.06;65.96;102155.63;5084242;28;45487;-79
2021/11/10 09:00:47;;;;;;;;;7.75;5.25;;;;;6.96;66.07;102154.28;5083421;28;46717;-80
2021/11/10 09:03:15;;;;;;;;;7.00;7.00;;;;;6.96;66.14;102143.06;5083686;28;45320;-80
2021/11/10 09:05:40;;;;;;;;;5.00;4.00;;;;;7.06;66.40;102160.81;5083868;28;45328;-80
2021/11/10 09:08:05;;;;;;;;;5.25;3.75;;;;;6.99;66.40;102139.72;5083909;28;45241;-79
2021/11/10 09:10:34;;;;;;;;;6.00;5.25;;;;;7.11;66.02;102158.44;5083643;28;45946;-79
2021/11/10 09:13:01;;;;;;;;;4.50;4.50;;;;;7.04;66.26;102133.94;5065261;28;45284;-78
2021/11/10 09:15:27;;;;;;;;;6.00;6.00;;;;;7.14;66.16;102148.19;5083644;28;45626;-78
2021/11/10 09:17:53;;;;;;;;;4.00;4.00;;;;;7.37;66.43;102156.13;5083740;28;45301;-78
2021/11/10 09:20:23;;;;;;;;;5.25;4.00;;;;;7.42;65.84;102141.69;5083802;28;45441;-79
2021/11/10 09:22:49;;;;;;;;;8.25;4.25;;;;;7.58;65.77;102138.06;5083943;28;45255;-79
2021/11/10 09:25:18;;;;;;;;;4.00;4.00;;;;;7.64;65.37;102140.03;5083742;28;45409;-78
2021/11/10 09:27:44;;;;;;;;;4.75;4.75;;;;;7.73;65.21;102139.53;5084117;28;45335;-78
2021/11/10 09:30:12;;;;;;;;;10.00;6.75;;;;;7.60;65.33;102109.63;5083157;28;46873;-78
2021/11/10 09:32:39;;;;;;;;;6.00;4.00;;;;;7.73;65.26;102103.25;5081396;28;45263;-78
2021/11/10 09:35:07;;;;;;;;;9.25;6.75;;;;;7.88;64.87;102123.75;5083356;28;45634;-78
2021/11/10 09:37:33;;;;;;;;;4.00;3.75;;;;;7.93;64.64;102113.56;5083406;28;45434;-79
2021/11/10 09:40:00;;;;;;;;;4.25;3.00;;;;;7.99;64.75;102095.66;5083239;28;46560;-79
2021/11/10 09:42:26;;;;;;;;;8.50;6.00;;;;;8.28;64.66;102124.50;5083458;28;45224;-78
2021/11/10 09:44:54;;;;;;;;;7.75;6.25;;;;;8.34;64.46;102119.56;5083542;28;45391;-79
2021/11/10 09:47:19;;;;;;;;;7.25;5.25;;;;;8.51;64.17;102144.44;5084089;28;45519;-78
2021/11/10 09:49:47;;;;;;;;;4.25;4.25;;;;;8.44;64.75;102117.31;5083348;28;46039;-77
2021/11/10 09:52:13;;;;;;;;;5.75;5.00;;;;;8.60;64.31;102131.81;5083238;28;45352;-80
2021/11/10 09:54:39;;;;;;;;;4.75;3.50;;;;;8.61;64.11;102137.06;5083220;28;45323;-78
2021/11/10 09:57:04;;;;;;;;;3.00;3.00;;;;;8.73;63.50;102148.78;5083464;28;45383;-78
2021/11/10 09:59:30;;;;;;;;;6.00;4.75;;;;;8.68;63.46;102148.59;5083363;28;45239;-78
2021/11/10 10:01:56;;;;;;;;;7.25;5.00;;;;;8.70;64.09;102159.06;5083040;28;45279;-78
2021/11/10 10:04:22;;;;;;;;;4.00;3.25;;;;;8.71;64.21;102158.22;5081948;28;45248;-78
2021/11/10 10:06:48;;;;;;;;;8.75;5.50;;;;;8.76;63.71;102158.41;5082915;28;45205;-78
2021/11/10 10:09:13;;;;;;;;;5.25;4.25;;;;;8.86;63.77;102173.50;5083039;28;46085;-78
2021/11/10 10:11:39;;;;;;;;;7.50;5.50;;;;;8.95;63.66;102168.66;5083222;28;45237;-79
2021/11/10 10:14:05;;;;;;;;;5.25;4.25;;;;;8.94;63.96;102153.03;5082480;28;45493;-80
2021/11/10 10:16:31;;;;;;;;;9.00;6.75;;;;;9.10;63.50;102165.75;5083675;28;45473;-79
2021/11/10 10:19:13;;;;;;;;;3.00;2.50;;;;;9.10;63.44;102163.16;5082588;28;45289;-78
2021/11/10 10:21:40;;;;;;;;;7.25;6.00;;;;;9.22;63.05;102174.88;5082791;28;45295;-79
2021/11/10 10:24:15;;;;;;;;;6.75;5.75;;;;;9.20;62.98;102153.13;5082669;28;45351;-79
2021/11/10 10:26:41;;;;;;;;;8.00;6.00;;;;;9.29;63.14;102144.78;5081168;28;45520;-78
2021/11/10 10:29:09;;;;;;;;;5.00;5.00;;;;;9.50;62.75;102174.16;5082498;28;45304;-79
2021/11/10 10:31:37;;;;;;;;;7.50;5.75;;;;;9.45;62.72;102148.81;5064069;28;45509;-78
2021/11/10 10:34:07;;;;;;;;;3.50;3.50;;;;;9.67;62.68;102170.38;5082638;28;45360;-79
2021/11/10 10:36:39;;;;;;;;;6.25;6.25;;;;;9.66;62.16;102151.31;5081601;28;45397;-78
2021/11/10 10:39:08;;;;;;;;;4.50;4.50;;;;;9.52;62.16;102137.81;5082448;28;45316;-79
2021/11/10 10:41:36;;;;;;;;;6.75;4.75;;;;;9.70;61.96;102153.19;5063743;28;45390;-80
2021/11/10 10:44:13;;;;;;;;;3.00;2.00;;;;;9.70;62.23;102142.78;5082349;28;45270;-79
2021/11/10 10:46:41;;;;;;;;;5.75;4.50;;;;;9.74;62.25;102135.97;5082536;28;45296;-80
2021/11/10 10:49:19;;;;;;;;;10.75;5.25;;;;;9.63;62.05;102120.00;5082173;28;46303;-80
2021/11/10 10:51:54;;;;;;;;;7.50;5.25;;;;;9.69;61.69;102125.41;5081997;28;45328;-80
2021/11/10 10:54:27;;;;;;;;;5.00;4.00;;;;;9.66;61.48;102104.50;5063771;28;45247;-80
2021/11/10 10:56:59;;;;;;;;;5.00;4.00;;;;;9.89;61.43;102117.38;5082750;28;45302;-79
2021/11/10 10:59:25;;;;;;;;;5.00;5.00;;;;;9.86;61.43;102122.47;5082383;28;46144;-79
2021/11/10 11:01:54;;;;;;;;;5.75;4.50;;;;;9.76;61.39;102121.28;5082112;28;45330;-80
2021/11/10 11:04:22;;;;;;;;;9.75;6.00;;;;;9.76;61.30;102117.00;5082183;28;45312;-79
2021/11/10 11:06:57;;;;;;;;;5.25;4.50;;;;;9.67;61.24;102094.97;5082269;28;45439;-80
2021/11/10 11:09:26;;;;;;;;;7.75;6.00;;;;;9.85;61.68;102107.72;5081632;28;46168;-80
2021/11/10 11:12:12;;;;;;;;;7.00;7.00;;;;;9.86;61.33;102114.69;5081288;28;45330;-80
2021/11/10 11:17:17;;;;;;;;;7.75;5.00;;;;;9.87;61.23;102106.06;5081451;28;45205;-79
2021/11/10 11:19:59;;;;;;;;;3.75;3.75;;;;;9.76;61.17;102083.19;5081248;28;45642;-80
2021/11/10 11:22:35;;;;;;;;;8.00;4.75;;;;;9.95;61.34;102095.94;5081301;28;45597;-79
2021/11/10 11:25:11;;;;;;;;;6.00;4.00;;;;;9.85;61.11;102080.00;5083422;28;45283;-81
2021/11/10 11:27:37;;;;;;;;;4.00;3.00;;;;;9.94;60.85;102082.03;5085197;28;45529;-80
2021/11/10 11:30:13;;;;;;;;;2.00;2.00;;;;;9.93;60.40;102077.66;5085087;28;45218;-79
2021/11/10 11:32:50;;;;;;;;;3.00;3.00;;;;;9.95;59.65;102067.31;5082780;28;45283;-79
2021/11/10 11:35:26;;;;;;;;;5.00;2.00;;;;;9.99;59.88;102064.84;5085262;28;45346;-80
2021/11/10 11:37:53;;;;;;;;;2.75;2.00;;;;;9.98;60.15;102068.28;5084734;28;45271;-80